sensor_id;sensor_type;location;lat;lon;timestamp;P1;durP1;ratioP1;P2;durP2;ratioP2
28629;SDS011;15817;42.130;24.762;2022-11-23T00:02:03;8.60;;;4.32;;
28629;SDS011;15817;42.130;24.762;2022-11-23T00:04:32;12.32;;;6.78;;
28629;SDS011;15817;42.130;24.762;2022-11-23T00:06:57;12.15;;;8.15;;
28629;SDS011;15817;42.130;24.762;2022-11-23T00:09:23;13.60;;;9.07;;
28629;SDS011;15817;42.130;24.762;2022-11-23T00:11:52;14.70;;;9.88;;
28629;SDS011;15817;42.130;24.762;2022-11-23T00:14:19;11.68;;;9.10;;
28629;SDS011;15817;42.130;24.762;2022-11-23T00:16:45;15.73;;;10.20;;
28629;SDS011;15817;42.130;24.762;2022-11-23T00:19:11;18.08;;;9.23;;
28629;SDS011;15817;42.130;24.762;2022-11-23T00:21:37;15.13;;;10.30;;
28629;SDS011;15817;42.130;24.762;2022-11-23T00:24:02;15.60;;;9.48;;
28629;SDS011;15817;42.130;24.762;2022-11-23T00:26:28;15.85;;;9.98;;
28629;SDS011;15817;42.130;24.762;2022-11-23T00:28:54;16.83;;;11.15;;
28629;SDS011;15817;42.130;24.762;2022-11-23T00:31:24;16.98;;;10.38;;
28629;SDS011;15817;42.130;24.762;2022-11-23T00:33:50;15.38;;;10.15;;
28629;SDS011;15817;42.130;24.762;2022-11-23T00:36:18;14.93;;;10.02;;
28629;SDS011;15817;42.130;24.762;2022-11-23T00:38:45;17.30;;;10.30;;
28629;SDS011;15817;42.130;24.762;2022-11-23T00:41:13;14.73;;;9.32;;
28629;SDS011;15817;42.130;24.762;2022-11-23T00:43:41;19.40;;;10.70;;
28629;SDS011;15817;42.130;24.762;2022-11-23T00:48:35;13.95;;;9.30;;
28629;SDS011;15817;42.130;24.762;2022-11-23T00:51:06;19.17;;;10.45;;
28629;SDS011;15817;42.130;24.762;2022-11-23T00:53:34;15.50;;;9.43;;
28629;SDS011;15817;42.130;24.762;2022-11-23T00:56:12;17.45;;;10.05;;
28629;SDS011;15817;42.130;24.762;2022-11-23T00:58:39;23.55;;;10.07;;
28629;SDS011;15817;42.130;24.762;2022-11-23T01:01:12;16.33;;;9.77;;
28629;SDS011;15817;42.130;24.762;2022-11-23T01:03:41;12.50;;;9.23;;
28629;SDS011;15817;42.130;24.762;2022-11-23T01:06:13;13.70;;;8.93;;
28629;SDS011;15817;42.130;24.762;2022-11-23T01:08:41;15.40;;;8.57;;
28629;SDS011;15817;42.130;24.762;2022-11-23T01:11:17;13.25;;;8.80;;
28629;SDS011;15817;42.130;24.762;2022-11-23T01:13:44;13.73;;;8.25;;
28629;SDS011;15817;42.130;24.762;2022-11-23T01:16:14;12.15;;;8.05;;
28629;SDS011;15817;42.130;24.762;2022-11-23T01:18:42;11.88;;;7.60;;
28629;SDS011;15817;42.130;24.762;2022-11-23T01:21:08;10.63;;;6.43;;
28629;SDS011;15817;42.130;24.762;2022-11-23T01:23:38;7.95;;;5.47;;
28629;SDS011;15817;42.130;24.762;2022-11-23T01:26:04;9.38;;;5.03;;
28629;SDS011;15817;42.130;24.762;2022-11-23T01:28:31;10.75;;;5.78;;
28629;SDS011;15817;42.130;24.762;2022-11-23T01:31:04;9.93;;;4.88;;
28629;SDS011;15817;42.130;24.762;2022-11-23T01:33:43;6.68;;;5.30;;
28629;SDS011;15817;42.130;24.762;2022-11-23T01:36:09;9.40;;;4.82;;
28629;SDS011;15817;42.130;24.762;2022-11-23T01:38:40;8.23;;;4.10;;
28629;SDS011;15817;42.130;24.762;2022-11-23T01:41:07;7.05;;;3.78;;
28629;SDS011;15817;42.130;24.762;2022-11-23T01:43:44;9.55;;;3.97;;
28629;SDS011;15817;42.130;24.762;2022-11-23T01:46:11;5.05;;;3.78;;
28629;SDS011;15817;42.130;24.762;2022-11-23T01:51:27;7.30;;;5.30;;
28629;SDS011;15817;42.130;24.762;2022-11-23T01:53:57;11.43;;;6.63;;
28629;SDS011;15817;42.130;24.762;2022-11-23T01:56:31;15.93;;;7.30;;
28629;SDS011;15817;42.130;24.762;2022-11-23T01:59:01;12.13;;;6.90;;
28629;SDS011;15817;42.130;24.762;2022-11-23T02:01:29;12.10;;;6.72;;
28629;SDS011;15817;42.130;24.762;2022-11-23T02:03:55;15.48;;;8.45;;
28629;SDS011;15817;42.130;24.762;2022-11-23T02:06:27;12.95;;;9.27;;
28629;SDS011;15817;42.130;24.762;2022-11-23T02:09:00;13.07;;;9.00;;
28629;SDS011;15817;42.130;24.762;2022-11-23T02:11:27;13.43;;;10.50;;
28629;SDS011;15817;42.130;24.762;2022-11-23T02:13:52;16.90;;;10.48;;
28629;SDS011;15817;42.130;24.762;2022-11-23T02:16:21;13.85;;;9.98;;
28629;SDS011;15817;42.130;24.762;2022-11-23T02:18:47;14.43;;;10.57;;
28629;SDS011;15817;42.130;24.762;2022-11-23T02:21:17;14.40;;;9.80;;
28629;SDS011;15817;42.130;24.762;2022-11-23T02:24:02;16.73;;;9.75;;
28629;SDS011;15817;42.130;24.762;2022-11-23T02:26:37;13.20;;;9.60;;
28629;SDS011;15817;42.130;24.762;2022-11-23T02:29:13;16.98;;;11.63;;
28629;SDS011;15817;42.130;24.762;2022-11-23T02:31:42;18.77;;;10.90;;
28629;SDS011;15817;42.130;24.762;2022-11-23T02:34:08;17.50;;;10.65;;
28629;SDS011;15817;42.130;24.762;2022-11-23T02:36:41;17.77;;;10.48;;
28629;SDS011;15817;42.130;24.762;2022-11-23T02:41:39;16.17;;;10.68;;
28629;SDS011;15817;42.130;24.762;2022-11-23T02:44:13;21.65;;;11.35;;
28629;SDS011;15817;42.130;24.762;2022-11-23T02:46:49;14.88;;;11.00;;
28629;SDS011;15817;42.130;24.762;2022-11-23T02:49:16;15.73;;;11.18;;
28629;SDS011;15817;42.130;24.762;2022-11-23T02:51:41;18.52;;;10.95;;
28629;SDS011;15817;42.130;24.762;2022-11-23T02:54:07;22.05;;;11.32;;
28629;SDS011;15817;42.130;24.762;2022-11-23T02:56:35;20.50;;;10.57;;
28629;SDS011;15817;42.130;24.762;2022-11-23T02:59:02;17.95;;;10.23;;
28629;SDS011;15817;42.130;24.762;2022-11-23T03:01:28;15.65;;;10.52;;
28629;SDS011;15817;42.130;24.762;2022-11-23T03:03:54;16.95;;;9.48;;
28629;SDS011;15817;42.130;24.762;2022-11-23T03:06:19;15.18;;;9.77;;
28629;SDS011;15817;42.130;24.762;2022-11-23T03:08:46;15.98;;;9.27;;
28629;SDS011;15817;42.130;24.762;2022-11-23T03:11:14;15.57;;;9.07;;
28629;SDS011;15817;42.130;24.762;2022-11-23T03:13:40;15.00;;;9.93;;
28629;SDS011;15817;42.130;24.762;2022-11-23T03:16:07;14.68;;;9.40;;
28629;SDS011;15817;42.130;24.762;2022-11-23T03:18:34;12.70;;;8.95;;
28629;SDS011;15817;42.130;24.762;2022-11-23T03:21:02;14.02;;;9.00;;
28629;SDS011;15817;42.130;24.762;2022-11-23T03:23:29;11.35;;;8.73;;
28629;SDS011;15817;42.130;24.762;2022-11-23T03:26:03;10.25;;;7.93;;
28629;SDS011;15817;42.130;24.762;2022-11-23T03:28:34;9.98;;;8.05;;
28629;SDS011;15817;42.130;24.762;2022-11-23T03:31:01;10.45;;;7.72;;
28629;SDS011;15817;42.130;24.762;2022-11-23T03:33:27;12.52;;;9.18;;
28629;SDS011;15817;42.130;24.762;2022-11-23T03:35:53;11.88;;;8.52;;
28629;SDS011;15817;42.130;24.762;2022-11-23T03:38:30;11.45;;;7.88;;
28629;SDS011;15817;42.130;24.762;2022-11-23T03:40:57;11.52;;;7.50;;
28629;SDS011;15817;42.130;24.762;2022-11-23T03:43:46;11.98;;;8.48;;
28629;SDS011;15817;42.130;24.762;2022-11-23T03:46:14;10.65;;;8.23;;
28629;SDS011;15817;42.130;24.762;2022-11-23T03:48:40;12.60;;;8.13;;
28629;SDS011;15817;42.130;24.762;2022-11-23T03:51:10;10.15;;;7.70;;
28629;SDS011;15817;42.130;24.762;2022-11-23T03:53:41;10.23;;;7.30;;
28629;SDS011;15817;42.130;24.762;2022-11-23T03:56:07;10.60;;;7.63;;
28629;SDS011;15817;42.130;24.762;2022-11-23T03:58:38;12.30;;;8.00;;
28629;SDS011;15817;42.130;24.762;2022-11-23T04:01:08;9.63;;;7.68;;
28629;SDS011;15817;42.130;24.762;2022-11-23T04:03:35;10.45;;;7.88;;
28629;SDS011;15817;42.130;24.762;2022-11-23T04:06:12;10.30;;;8.10;;
28629;SDS011;15817;42.130;24.762;2022-11-23T04:08:56;9.20;;;7.18;;
28629;SDS011;15817;42.130;24.762;2022-11-23T04:11:35;9.38;;;7.43;;
28629;SDS011;15817;42.130;24.762;2022-11-23T04:14:01;11.30;;;7.22;;
28629;SDS011;15817;42.130;24.762;2022-11-23T04:16:27;9.75;;;7.60;;
28629;SDS011;15817;42.130;24.762;2022-11-23T04:18:54;9.98;;;7.20;;
28629;SDS011;15817;42.130;24.762;2022-11-23T04:21:21;10.50;;;7.50;;
28629;SDS011;15817;42.130;24.762;2022-11-23T04:23:56;8.90;;;7.22;;
28629;SDS011;15817;42.130;24.762;2022-11-23T04:26:24;9.45;;;6.93;;
28629;SDS011;15817;42.130;24.762;2022-11-23T04:28:52;12.02;;;7.72;;
28629;SDS011;15817;42.130;24.762;2022-11-23T04:31:18;9.98;;;7.63;;
28629;SDS011;15817;42.130;24.762;2022-11-23T04:33:53;10.60;;;6.88;;
28629;SDS011;15817;42.130;24.762;2022-11-23T04:36:21;10.32;;;7.88;;
28629;SDS011;15817;42.130;24.762;2022-11-23T04:38:47;12.45;;;7.72;;
28629;SDS011;15817;42.130;24.762;2022-11-23T04:41:15;8.63;;;6.90;;
28629;SDS011;15817;42.130;24.762;2022-11-23T04:43:41;8.23;;;6.70;;
28629;SDS011;15817;42.130;24.762;2022-11-23T04:46:08;9.18;;;6.50;;
28629;SDS011;15817;42.130;24.762;2022-11-23T04:48:35;8.88;;;6.70;;
28629;SDS011;15817;42.130;24.762;2022-11-23T04:51:02;10.60;;;7.15;;
28629;SDS011;15817;42.130;24.762;2022-11-23T04:53:33;9.13;;;6.90;;
28629;SDS011;15817;42.130;24.762;2022-11-23T04:55:59;11.63;;;7.55;;
28629;SDS011;15817;42.130;24.762;2022-11-23T04:58:25;10.05;;;6.40;;
28629;SDS011;15817;42.130;24.762;2022-11-23T05:00:56;8.68;;;6.60;;
28629;SDS011;15817;42.130;24.762;2022-11-23T05:03:26;10.60;;;5.70;;
28629;SDS011;15817;42.130;24.762;2022-11-23T05:05:58;6.35;;;5.47;;
28629;SDS011;15817;42.130;24.762;2022-11-23T05:08:27;10.07;;;6.10;;
28629;SDS011;15817;42.130;24.762;2022-11-23T05:11:07;9.55;;;5.45;;
28629;SDS011;15817;42.130;24.762;2022-11-23T05:13:36;9.30;;;5.35;;
28629;SDS011;15817;42.130;24.762;2022-11-23T05:16:03;8.93;;;6.55;;
28629;SDS011;15817;42.130;24.762;2022-11-23T05:18:31;10.80;;;6.38;;
28629;SDS011;15817;42.130;24.762;2022-11-23T05:21:00;10.93;;;5.40;;
28629;SDS011;15817;42.130;24.762;2022-11-23T05:23:26;13.90;;;6.03;;
28629;SDS011;15817;42.130;24.762;2022-11-23T05:25:52;13.45;;;5.93;;
28629;SDS011;15817;42.130;24.762;2022-11-23T05:28:19;7.55;;;5.75;;
28629;SDS011;15817;42.130;24.762;2022-11-23T05:30:46;8.90;;;5.97;;
28629;SDS011;15817;42.130;24.762;2022-11-23T05:33:13;11.07;;;5.85;;
28629;SDS011;15817;42.130;24.762;2022-11-23T05:35:39;8.55;;;6.13;;
28629;SDS011;15817;42.130;24.762;2022-11-23T05:38:06;9.60;;;5.43;;
28629;SDS011;15817;42.130;24.762;2022-11-23T05:40:32;7.55;;;5.03;;
28629;SDS011;15817;42.130;24.762;2022-11-23T05:43:01;13.88;;;5.28;;
28629;SDS011;15817;42.130;24.762;2022-11-23T05:45:27;10.80;;;5.78;;
28629;SDS011;15817;42.130;24.762;2022-11-23T05:47:57;10.50;;;5.65;;
28629;SDS011;15817;42.130;24.762;2022-11-23T05:50:44;8.02;;;5.40;;
28629;SDS011;15817;42.130;24.762;2022-11-23T05:53:36;11.38;;;5.78;;
28629;SDS011;15817;42.130;24.762;2022-11-23T05:56:08;9.93;;;5.50;;
28629;SDS011;15817;42.130;24.762;2022-11-23T05:58:43;8.88;;;5.60;;
28629;SDS011;15817;42.130;24.762;2022-11-23T06:01:09;10.50;;;5.25;;
28629;SDS011;15817;42.130;24.762;2022-11-23T06:03:37;8.30;;;5.30;;
28629;SDS011;15817;42.130;24.762;2022-11-23T06:06:06;8.15;;;4.90;;
28629;SDS011;15817;42.130;24.762;2022-11-23T06:08:37;7.53;;;5.35;;
28629;SDS011;15817;42.130;24.762;2022-11-23T06:11:07;9.38;;;5.55;;
28629;SDS011;15817;42.130;24.762;2022-11-23T06:13:33;11.85;;;6.65;;
28629;SDS011;15817;42.130;24.762;2022-11-23T06:15:59;8.00;;;6.22;;
28629;SDS011;15817;42.130;24.762;2022-11-23T06:18:35;11.40;;;6.00;;
28629;SDS011;15817;42.130;24.762;2022-11-23T06:21:03;10.57;;;6.00;;
28629;SDS011;15817;42.130;24.762;2022-11-23T06:23:30;9.77;;;5.85;;
28629;SDS011;15817;42.130;24.762;2022-11-23T06:26:00;11.48;;;7.13;;
28629;SDS011;15817;42.130;24.762;2022-11-23T06:28:46;11.75;;;6.38;;
28629;SDS011;15817;42.130;24.762;2022-11-23T06:31:19;12.35;;;6.40;;
28629;SDS011;15817;42.130;24.762;2022-11-23T06:33:57;9.32;;;6.43;;
28629;SDS011;15817;42.130;24.762;2022-11-23T06:36:23;14.77;;;6.70;;
28629;SDS011;15817;42.130;24.762;2022-11-23T06:38:50;14.55;;;7.35;;
28629;SDS011;15817;42.130;24.762;2022-11-23T06:41:22;19.83;;;8.15;;
28629;SDS011;15817;42.130;24.762;2022-11-23T06:43:49;10.95;;;7.32;;
28629;SDS011;15817;42.130;24.762;2022-11-23T06:46:29;13.05;;;7.38;;
28629;SDS011;15817;42.130;24.762;2022-11-23T06:48:54;12.90;;;7.47;;
28629;SDS011;15817;42.130;24.762;2022-11-23T06:51:20;20.60;;;8.73;;
28629;SDS011;15817;42.130;24.762;2022-11-23T06:53:50;15.30;;;7.93;;
28629;SDS011;15817;42.130;24.762;2022-11-23T06:56:19;12.50;;;7.60;;
28629;SDS011;15817;42.130;24.762;2022-11-23T06:58:45;16.50;;;8.55;;
28629;SDS011;15817;42.130;24.762;2022-11-23T07:01:16;11.02;;;7.38;;
28629;SDS011;15817;42.130;24.762;2022-11-23T07:04:07;12.15;;;7.53;;
28629;SDS011;15817;42.130;24.762;2022-11-23T07:06:43;18.88;;;8.75;;
28629;SDS011;15817;42.130;24.762;2022-11-23T07:09:19;13.20;;;8.00;;
28629;SDS011;15817;42.130;24.762;2022-11-23T07:11:58;14.98;;;8.75;;
28629;SDS011;15817;42.130;24.762;2022-11-23T07:14:24;16.70;;;8.82;;
28629;SDS011;15817;42.130;24.762;2022-11-23T07:16:53;19.27;;;8.80;;
28629;SDS011;15817;42.130;24.762;2022-11-23T07:19:20;12.50;;;7.13;;
28629;SDS011;15817;42.130;24.762;2022-11-23T07:21:47;18.05;;;8.63;;
28629;SDS011;15817;42.130;24.762;2022-11-23T07:24:14;15.13;;;8.75;;
28629;SDS011;15817;42.130;24.762;2022-11-23T07:26:40;15.40;;;7.95;;
28629;SDS011;15817;42.130;24.762;2022-11-23T07:29:06;13.07;;;8.00;;
28629;SDS011;15817;42.130;24.762;2022-11-23T07:31:34;14.65;;;8.85;;
28629;SDS011;15817;42.130;24.762;2022-11-23T07:34:00;15.95;;;9.75;;
28629;SDS011;15817;42.130;24.762;2022-11-23T07:36:29;18.50;;;9.75;;
28629;SDS011;15817;42.130;24.762;2022-11-23T07:38:57;13.45;;;10.05;;
28629;SDS011;15817;42.130;24.762;2022-11-23T07:41:23;22.08;;;10.98;;
28629;SDS011;15817;42.130;24.762;2022-11-23T07:44:03;22.90;;;11.02;;
28629;SDS011;15817;42.130;24.762;2022-11-23T07:46:29;23.38;;;11.40;;
28629;SDS011;15817;42.130;24.762;2022-11-23T07:49:00;22.10;;;11.68;;
28629;SDS011;15817;42.130;24.762;2022-11-23T07:51:28;19.88;;;11.20;;
28629;SDS011;15817;42.130;24.762;2022-11-23T07:53:57;21.45;;;11.57;;
28629;SDS011;15817;42.130;24.762;2022-11-23T07:56:23;34.15;;;12.60;;
28629;SDS011;15817;42.130;24.762;2022-11-23T07:58:48;20.48;;;11.35;;
28629;SDS011;15817;42.130;24.762;2022-11-23T08:01:17;25.08;;;11.90;;
28629;SDS011;15817;42.130;24.762;2022-11-23T08:03:44;20.95;;;12.68;;
28629;SDS011;15817;42.130;24.762;2022-11-23T08:06:11;21.63;;;12.48;;
28629;SDS011;15817;42.130;24.762;2022-11-23T08:08:38;25.52;;;12.25;;
28629;SDS011;15817;42.130;24.762;2022-11-23T08:11:04;23.05;;;13.05;;
28629;SDS011;15817;42.130;24.762;2022-11-23T08:13:31;20.65;;;13.57;;
28629;SDS011;15817;42.130;24.762;2022-11-23T08:15:58;22.85;;;12.80;;
28629;SDS011;15817;42.130;24.762;2022-11-23T08:18:25;21.80;;;12.95;;
28629;SDS011;15817;42.130;24.762;2022-11-23T08:20:51;21.80;;;11.90;;
28629;SDS011;15817;42.130;24.762;2022-11-23T08:23:18;24.13;;;12.13;;
28629;SDS011;15817;42.130;24.762;2022-11-23T08:25:44;26.48;;;11.90;;
28629;SDS011;15817;42.130;24.762;2022-11-23T08:28:13;19.60;;;10.55;;
28629;SDS011;15817;42.130;24.762;2022-11-23T08:30:39;22.52;;;12.23;;
28629;SDS011;15817;42.130;24.762;2022-11-23T08:33:08;20.60;;;11.20;;
28629;SDS011;15817;42.130;24.762;2022-11-23T08:35:35;21.23;;;10.90;;
28629;SDS011;15817;42.130;24.762;2022-11-23T08:38:05;19.63;;;10.90;;
28629;SDS011;15817;42.130;24.762;2022-11-23T08:40:33;18.60;;;10.48;;
28629;SDS011;15817;42.130;24.762;2022-11-23T08:42:59;22.83;;;11.02;;
28629;SDS011;15817;42.130;24.762;2022-11-23T08:45:25;16.92;;;10.02;;
28629;SDS011;15817;42.130;24.762;2022-11-23T08:47:57;15.20;;;9.30;;
28629;SDS011;15817;42.130;24.762;2022-11-23T08:50:24;14.00;;;9.80;;
28629;SDS011;15817;42.130;24.762;2022-11-23T08:52:53;24.75;;;13.70;;
28629;SDS011;15817;42.130;24.762;2022-11-23T08:55:20;17.42;;;10.60;;
28629;SDS011;15817;42.130;24.762;2022-11-23T08:57:46;17.48;;;9.68;;
28629;SDS011;15817;42.130;24.762;2022-11-23T09:00:12;18.60;;;10.18;;
28629;SDS011;15817;42.130;24.762;2022-11-23T09:02:41;15.73;;;9.93;;
28629;SDS011;15817;42.130;24.762;2022-11-23T09:05:07;22.52;;;10.70;;
28629;SDS011;15817;42.130;24.762;2022-11-23T09:07:38;15.82;;;11.20;;
28629;SDS011;15817;42.130;24.762;2022-11-23T09:10:06;18.63;;;10.85;;
28629;SDS011;15817;42.130;24.762;2022-11-23T09:12:38;25.90;;;11.27;;
28629;SDS011;15817;42.130;24.762;2022-11-23T09:15:04;16.33;;;10.23;;
28629;SDS011;15817;42.130;24.762;2022-11-23T09:17:30;18.92;;;11.95;;
28629;SDS011;15817;42.130;24.762;2022-11-23T09:20:06;20.95;;;11.68;;
28629;SDS011;15817;42.130;24.762;2022-11-23T09:22:35;16.92;;;12.07;;
28629;SDS011;15817;42.130;24.762;2022-11-23T09:25:04;21.85;;;12.77;;
28629;SDS011;15817;42.130;24.762;2022-11-23T09:27:31;19.80;;;11.50;;
28629;SDS011;15817;42.130;24.762;2022-11-23T09:29:57;19.23;;;11.32;;
28629;SDS011;15817;42.130;24.762;2022-11-23T09:32:23;23.75;;;10.75;;
28629;SDS011;15817;42.130;24.762;2022-11-23T09:34:49;20.00;;;10.40;;
28629;SDS011;15817;42.130;24.762;2022-11-23T09:37:15;19.73;;;10.43;;
28629;SDS011;15817;42.130;24.762;2022-11-23T09:39:40;17.42;;;8.77;;
28629;SDS011;15817;42.130;24.762;2022-11-23T09:42:16;11.85;;;8.18;;
28629;SDS011;15817;42.130;24.762;2022-11-23T09:47:37;10.75;;;8.73;;
28629;SDS011;15817;42.130;24.762;2022-11-23T09:52:54;16.20;;;10.25;;
28629;SDS011;15817;42.130;24.762;2022-11-23T09:55:37;15.45;;;9.30;;
28629;SDS011;15817;42.130;24.762;2022-11-23T09:58:15;19.98;;;10.25;;
28629;SDS011;15817;42.130;24.762;2022-11-23T10:03:57;17.63;;;8.50;;
28629;SDS011;15817;42.130;24.762;2022-11-23T10:06:26;17.10;;;9.40;;
28629;SDS011;15817;42.130;24.762;2022-11-23T10:12:07;17.30;;;10.05;;
28629;SDS011;15817;42.130;24.762;2022-11-23T10:23:07;13.70;;;10.13;;
28629;SDS011;15817;42.130;24.762;2022-11-23T10:25:55;13.32;;;9.35;;
28629;SDS011;15817;42.130;24.762;2022-11-23T10:28:24;15.90;;;9.95;;
28629;SDS011;15817;42.130;24.762;2022-11-23T10:31:00;17.50;;;9.90;;
28629;SDS011;15817;42.130;24.762;2022-11-23T10:36:35;16.58;;;10.05;;
28629;SDS011;15817;42.130;24.762;2022-11-23T10:39:04;13.82;;;10.05;;
28629;SDS011;15817;42.130;24.762;2022-11-23T10:41:59;14.50;;;9.85;;
28629;SDS011;15817;42.130;24.762;2022-11-23T10:44:31;15.95;;;11.07;;
28629;SDS011;15817;42.130;24.762;2022-11-23T10:47:03;16.63;;;10.85;;
28629;SDS011;15817;42.130;24.762;2022-11-23T10:49:32;16.98;;;10.30;;
28629;SDS011;15817;42.130;24.762;2022-11-23T10:52:24;20.20;;;10.52;;
28629;SDS011;15817;42.130;24.762;2022-11-23T10:54:57;19.95;;;11.10;;
28629;SDS011;15817;42.130;24.762;2022-11-23T10:59:56;18.58;;;10.70;;
28629;SDS011;15817;42.130;24.762;2022-11-23T11:02:24;17.23;;;10.20;;
28629;SDS011;15817;42.130;24.762;2022-11-23T11:04:50;16.52;;;10.10;;
28629;SDS011;15817;42.130;24.762;2022-11-23T11:07:21;13.02;;;9.15;;
28629;SDS011;15817;42.130;24.762;2022-11-23T11:09:54;15.45;;;10.48;;
28629;SDS011;15817;42.130;24.762;2022-11-23T11:12:32;14.15;;;9.60;;
28629;SDS011;15817;42.130;24.762;2022-11-23T11:17:34;16.88;;;8.88;;
28629;SDS011;15817;42.130;24.762;2022-11-23T11:20:02;18.00;;;9.60;;
28629;SDS011;15817;42.130;24.762;2022-11-23T11:22:52;15.63;;;8.48;;
28629;SDS011;15817;42.130;24.762;2022-11-23T11:25:39;13.57;;;8.40;;
28629;SDS011;15817;42.130;24.762;2022-11-23T11:28:20;13.60;;;7.38;;
28629;SDS011;15817;42.130;24.762;2022-11-23T11:30:56;16.15;;;9.27;;
28629;SDS011;15817;42.130;24.762;2022-11-23T11:33:36;16.85;;;9.48;;
28629;SDS011;15817;42.130;24.762;2022-11-23T11:36:24;11.57;;;8.88;;
28629;SDS011;15817;42.130;24.762;2022-11-23T11:38:57;12.55;;;9.23;;
28629;SDS011;15817;42.130;24.762;2022-11-23T11:41:27;10.55;;;8.30;;
28629;SDS011;15817;42.130;24.762;2022-11-23T11:44:06;14.48;;;9.00;;
28629;SDS011;15817;42.130;24.762;2022-11-23T11:46:59;12.48;;;8.70;;
28629;SDS011;15817;42.130;24.762;2022-11-23T11:49:39;11.38;;;8.75;;
28629;SDS011;15817;42.130;24.762;2022-11-23T11:52:16;18.58;;;9.05;;
28629;SDS011;15817;42.130;24.762;2022-11-23T11:57:59;13.25;;;8.27;;
28629;SDS011;15817;42.130;24.762;2022-11-23T12:00:28;15.10;;;8.52;;
28629;SDS011;15817;42.130;24.762;2022-11-23T12:05:49;11.98;;;8.07;;
28629;SDS011;15817;42.130;24.762;2022-11-23T12:10:54;14.57;;;8.82;;
28629;SDS011;15817;42.130;24.762;2022-11-23T12:13:36;12.60;;;9.00;;
28629;SDS011;15817;42.130;24.762;2022-11-23T12:42:23;12.65;;;7.93;;
28629;SDS011;15817;42.130;24.762;2022-11-23T12:45:24;10.95;;;8.45;;
28629;SDS011;15817;42.130;24.762;2022-11-23T12:57:21;12.55;;;8.40;;
28629;SDS011;15817;42.130;24.762;2022-11-23T13:00:17;15.85;;;8.70;;
28629;SDS011;15817;42.130;24.762;2022-11-23T13:11:12;16.65;;;10.55;;
28629;SDS011;15817;42.130;24.762;2022-11-23T13:22:35;17.20;;;11.25;;
28629;SDS011;15817;42.130;24.762;2022-11-23T13:27:56;20.50;;;12.05;;
28629;SDS011;15817;42.130;24.762;2022-11-23T13:30:33;15.05;;;10.88;;
28629;SDS011;15817;42.130;24.762;2022-11-23T13:35:48;16.27;;;13.02;;
28629;SDS011;15817;42.130;24.762;2022-11-23T13:38:26;16.70;;;11.90;;
28629;SDS011;15817;42.130;24.762;2022-11-23T13:44:11;15.40;;;10.50;;
28629;SDS011;15817;42.130;24.762;2022-11-23T13:47:03;18.05;;;12.27;;
28629;SDS011;15817;42.130;24.762;2022-11-23T13:52:05;19.27;;;11.60;;
28629;SDS011;15817;42.130;24.762;2022-11-23T13:57:38;16.58;;;11.68;;
28629;SDS011;15817;42.130;24.762;2022-11-23T14:08:42;14.48;;;11.02;;
28629;SDS011;15817;42.130;24.762;2022-11-23T14:11:13;18.75;;;12.73;;
28629;SDS011;15817;42.130;24.762;2022-11-23T14:13:57;18.77;;;11.77;;
28629;SDS011;15817;42.130;24.762;2022-11-23T14:42:43;17.88;;;11.90;;
28629;SDS011;15817;42.130;24.762;2022-11-23T14:45:15;16.77;;;11.02;;
28629;SDS011;15817;42.130;24.762;2022-11-23T14:47:41;19.73;;;11.68;;
28629;SDS011;15817;42.130;24.762;2022-11-23T14:53:02;20.17;;;12.43;;
28629;SDS011;15817;42.130;24.762;2022-11-23T14:55:32;15.68;;;11.32;;
28629;SDS011;15817;42.130;24.762;2022-11-23T14:58:05;20.17;;;13.38;;
28629;SDS011;15817;42.130;24.762;2022-11-23T15:00:41;18.35;;;12.00;;
28629;SDS011;15817;42.130;24.762;2022-11-23T15:03:12;20.15;;;12.90;;
28629;SDS011;15817;42.130;24.762;2022-11-23T15:05:42;18.40;;;13.27;;
28629;SDS011;15817;42.130;24.762;2022-11-23T15:08:24;22.17;;;13.52;;
28629;SDS011;15817;42.130;24.762;2022-11-23T15:11:15;20.98;;;12.82;;
28629;SDS011;15817;42.130;24.762;2022-11-23T15:16:14;20.10;;;12.57;;
28629;SDS011;15817;42.130;24.762;2022-11-23T15:18:41;29.10;;;13.55;;
28629;SDS011;15817;42.130;24.762;2022-11-23T15:23:40;30.60;;;13.45;;
28629;SDS011;15817;42.130;24.762;2022-11-23T15:26:30;25.13;;;13.40;;
28629;SDS011;15817;42.130;24.762;2022-11-23T15:28:56;27.15;;;13.05;;
28629;SDS011;15817;42.130;24.762;2022-11-23T15:33:59;24.77;;;14.27;;
28629;SDS011;15817;42.130;24.762;2022-11-23T15:36:35;27.63;;;13.55;;
28629;SDS011;15817;42.130;24.762;2022-11-23T15:39:05;29.83;;;14.43;;
28629;SDS011;15817;42.130;24.762;2022-11-23T15:41:33;31.10;;;13.65;;
28629;SDS011;15817;42.130;24.762;2022-11-23T15:44:13;27.23;;;15.60;;
28629;SDS011;15817;42.130;24.762;2022-11-23T15:47:00;27.25;;;15.27;;
28629;SDS011;15817;42.130;24.762;2022-11-23T15:49:35;27.02;;;15.98;;
28629;SDS011;15817;42.130;24.762;2022-11-23T15:52:05;20.52;;;15.27;;
28629;SDS011;15817;42.130;24.762;2022-11-23T15:54:41;25.35;;;17.30;;
28629;SDS011;15817;42.130;24.762;2022-11-23T15:57:12;27.13;;;17.88;;
28629;SDS011;15817;42.130;24.762;2022-11-23T15:59:46;28.73;;;19.27;;
28629;SDS011;15817;42.130;24.762;2022-11-23T16:02:24;30.95;;;19.48;;
28629;SDS011;15817;42.130;24.762;2022-11-23T16:12:51;41.33;;;19.67;;
28629;SDS011;15817;42.130;24.762;2022-11-23T16:18:14;39.90;;;22.63;;
28629;SDS011;15817;42.130;24.762;2022-11-23T16:20:44;34.55;;;22.63;;
28629;SDS011;15817;42.130;24.762;2022-11-23T16:23:18;47.17;;;24.02;;
28629;SDS011;15817;42.130;24.762;2022-11-23T16:28:56;43.72;;;23.75;;
28629;SDS011;15817;42.130;24.762;2022-11-23T16:31:34;40.00;;;24.58;;
28629;SDS011;15817;42.130;24.762;2022-11-23T16:34:08;50.28;;;26.73;;
28629;SDS011;15817;42.130;24.762;2022-11-23T16:36:39;52.85;;;26.63;;
28629;SDS011;15817;42.130;24.762;2022-11-23T16:39:05;50.85;;;25.25;;
28629;SDS011;15817;42.130;24.762;2022-11-23T16:41:31;44.17;;;25.23;;
28629;SDS011;15817;42.130;24.762;2022-11-23T16:44:00;44.08;;;24.35;;
28629;SDS011;15817;42.130;24.762;2022-11-23T16:46:32;48.05;;;23.80;;
28629;SDS011;15817;42.130;24.762;2022-11-23T16:49:17;41.45;;;22.48;;
28629;SDS011;15817;42.130;24.762;2022-11-23T16:51:47;59.95;;;29.35;;
28629;SDS011;15817;42.130;24.762;2022-11-23T16:54:21;52.35;;;29.02;;
28629;SDS011;15817;42.130;24.762;2022-11-23T16:56:47;47.78;;;28.45;;
28629;SDS011;15817;42.130;24.762;2022-11-23T16:59:33;58.17;;;31.77;;
28629;SDS011;15817;42.130;24.762;2022-11-23T17:02:07;62.30;;;32.38;;
28629;SDS011;15817;42.130;24.762;2022-11-23T17:04:48;59.72;;;31.10;;
28629;SDS011;15817;42.130;24.762;2022-11-23T17:07:23;61.45;;;34.35;;
28629;SDS011;15817;42.130;24.762;2022-11-23T17:09:53;52.55;;;35.35;;
28629;SDS011;15817;42.130;24.762;2022-11-23T17:12:30;66.53;;;39.53;;
28629;SDS011;15817;42.130;24.762;2022-11-23T17:14:59;57.47;;;34.53;;
28629;SDS011;15817;42.130;24.762;2022-11-23T17:17:27;55.45;;;32.50;;
28629;SDS011;15817;42.130;24.762;2022-11-23T17:19:55;57.97;;;32.55;;
28629;SDS011;15817;42.130;24.762;2022-11-23T17:22:24;62.72;;;25.40;;
28629;SDS011;15817;42.130;24.762;2022-11-23T17:24:53;39.97;;;22.13;;
28629;SDS011;15817;42.130;24.762;2022-11-23T17:27:22;44.08;;;21.30;;
28629;SDS011;15817;42.130;24.762;2022-11-23T17:29:56;42.17;;;20.45;;
28629;SDS011;15817;42.130;24.762;2022-11-23T17:32:28;42.83;;;21.88;;